Time;durP1;ratioP1;P1;durP2;ratioP2;P2;SDS_P1;SDS_P2;PMS_P1;PMS_P2;Temp;Humidity;BMP_temperature;BMP_pressure;BME280_temperature;BME280_humidity;BME280_pressure;Samples;Min_cycle;Max_cycle;Signal;HPM_P1;HPM_P2
2021/11/19 09:07:48;;;;;;;32.47;10.63;;;;;;;3.96;100.00;100639.19;5089213;27;20403;-82
2021/11/19 09:10:17;;;;;;;29.13;12.15;;;;;;;4.04;100.00;100632.31;5070866;28;20048;-82
2021/11/19 09:12:44;;;;;;;24.02;11.10;;;;;;;4.14;100.00;100629.00;5069109;28;20049;-83
2021/11/19 09:15:15;;;;;;;25.40;12.48;;;;;;;4.21;100.00;100628.44;5068348;28;20072;-83
2021/11/19 09:18:02;;;;;;;20.85;11.55;;;;;;;4.31;100.00;100625.97;5065356;28;20049;-83
2021/11/19 09:20:38;;;;;;;25.25;11.85;;;;;;;4.35;100.00;100624.81;5069609;28;20053;-83
2021/11/19 09:23:10;;;;;;;23.75;10.52;;;;;;;4.34;100.00;100628.44;5069341;28;20110;-83
2021/11/19 09:25:42;;;;;;;27.33;11.23;;;;;;;4.25;100.00;100621.03;5069281;28;20087;-83
2021/11/19 09:28:10;;;;;;;18.45;10.90;;;;;;;4.33;100.00;100620.47;5068854;28;20049;-83
2021/11/19 09:30:41;;;;;;;22.27;10.07;;;;;;;4.39;100.00;100628.13;5049306;28;20065;-83
2021/11/19 09:33:10;;;;;;;18.38;10.10;;;;;;;4.41;100.00;100632.44;5049584;28;20053;-83
2021/11/19 09:35:40;;;;;;;23.17;10.80;;;;;;;4.48;100.00;100626.59;5064065;28;20462;-83
2021/11/19 09:38:10;;;;;;;22.88;10.20;;;;;;;4.54;100.00;100610.00;5068906;28;20063;-83
2021/11/19 09:40:39;;;;;;;16.50;9.63;;;;;;;4.68;100.00;100620.66;5069121;28;20281;-83
2021/11/19 09:43:19;;;;;;;19.15;9.88;;;;;;;4.77;100.00;100614.59;5068800;28;20496;-83
2021/11/19 09:46:20;;;;;;;17.90;10.77;;;;;;;4.79;100.00;100617.19;5068782;28;20540;-83
2021/11/19 09:48:58;;;;;;;19.75;9.38;;;;;;;5.01;100.00;100615.59;5051764;28;20056;-83
2021/11/19 09:52:13;;;;;;;18.88;10.15;;;;;;;4.91;100.00;100610.03;5067462;28;20048;-82
2021/11/19 09:55:27;;;;;;;16.60;10.05;;;;;;;5.15;100.00;100612.75;5055983;28;20045;-83
2021/11/19 09:58:29;;;;;;;17.65;9.23;;;;;;;5.14;100.00;100619.94;5049698;28;20085;-83
2021/11/19 10:01:17;;;;;;;17.85;9.70;;;;;;;5.18;100.00;100611.63;5066646;28;20048;-83
2021/11/19 10:04:26;;;;;;;19.05;10.57;;;;;;;5.28;100.00;100612.66;5067220;28;20056;-82
2021/11/19 10:06:57;;;;;;;21.45;10.23;;;;;;;5.22;100.00;100605.03;5048413;28;20052;-83
2021/11/19 10:09:26;;;;;;;16.67;9.45;;;;;;;5.22;100.00;100615.81;5047565;28;20073;-83
2021/11/19 10:11:57;;;;;;;24.03;9.90;;;;;;;5.21;100.00;100609.59;5046834;28;20400;-83
2021/11/19 10:14:31;;;;;;;21.80;9.43;;;;;;;5.21;100.00;100603.31;5048362;28;20045;-83
2021/11/19 10:17:10;;;;;;;20.35;10.05;;;;;;;5.06;100.00;100606.19;5046824;28;20049;-83
2021/11/19 10:19:40;;;;;;;22.10;9.43;;;;;;;5.19;100.00;100597.19;5034503;28;20050;-83
2021/11/19 10:22:21;;;;;;;19.60;10.57;;;;;;;5.33;100.00;100594.31;5035095;28;20106;-83
2021/11/19 10:24:52;;;;;;;26.08;11.18;;;;;;;5.41;100.00;100602.69;5034871;28;20061;-83
2021/11/19 10:27:22;;;;;;;19.58;9.02;;;;;;;5.51;100.00;100608.25;5033745;28;20042;-84
2021/11/19 10:29:52;;;;;;;23.70;9.63;;;;;;;5.53;100.00;100598.19;5034283;28;20104;-83
2021/11/19 10:32:21;;;;;;;;;;;;;;;5.60;100.00;100596.75;5035244;28;20056;-83
2021/11/19 10:35:22;;;;;;;26.77;10.63;;;;;;;5.60;100.00;100582.38;5034608;28;19924;-83
2021/11/19 10:38:28;;;;;;;17.05;9.15;;;;;;;5.60;100.00;100587.78;5034183;28;20049;-83
2021/11/19 10:41:19;;;;;;;20.67;10.65;;;;;;;5.83;100.00;100589.56;5023903;28;20056;-83
2021/11/19 10:44:12;;;;;;;19.75;10.23;;;;;;;5.77;100.00;100590.03;5035932;28;20412;-84
2021/11/19 10:47:01;;;;;;;18.73;10.50;;;;;;;5.87;100.00;100584.78;5036780;28;20045;-82
2021/11/19 10:50:02;;;;;;;25.77;11.30;;;;;;;5.77;100.00;100578.41;5037602;28;20053;-83
2021/11/19 10:53:15;;;;;;;27.05;11.23;;;;;;;5.89;100.00;100571.19;5037240;28;20049;-83
2021/11/19 10:56:26;;;;;;;22.52;9.75;;;;;;;5.74;100.00;100573.25;4992869;28;20532;-84
2021/11/19 10:58:55;;;;;;;25.67;11.25;;;;;;;5.84;100.00;100567.00;5001570;28;20115;-83
2021/11/19 11:01:37;;;;;;;21.85;10.55;;;;;;;6.05;100.00;100576.25;5016701;28;20110;-83
2021/11/19 11:04:18;;;;;;;20.63;10.65;;;;;;;5.90;100.00;100564.78;5034412;28;20053;-84
2021/11/19 11:06:52;;;;;;;19.63;10.38;;;;;;;5.77;100.00;100556.81;5014481;28;20050;-83
2021/11/19 11:09:28;;;;;;;20.33;10.85;;;;;;;5.80;100.00;100561.97;5033358;28;20054;-83
2021/11/19 11:11:59;;;;;;;26.05;10.38;;;;;;;5.80;100.00;100568.22;5034425;28;20049;-84
2021/11/19 11:14:31;;;;;;;30.42;10.27;;;;;;;5.68;100.00;100561.06;5034008;28;20053;-83
2021/11/19 11:17:03;;;;;;;24.30;10.70;;;;;;;5.55;100.00;100558.44;5034305;28;20163;-84
2021/11/19 11:19:32;;;;;;;26.33;11.23;;;;;;;5.50;100.00;100552.56;5032807;28;20132;-83
2021/11/19 11:22:05;;;;;;;23.05;11.50;;;;;;;5.56;100.00;100549.38;5034192;28;20049;-84
2021/11/19 11:24:35;;;;;;;23.88;10.35;;;;;;;5.61;100.00;100552.56;5032602;28;20048;-83
2021/11/19 11:27:13;;;;;;;;;;;;;;;5.63;100.00;100553.34;5034127;28;20140;-83
2021/11/19 11:29:46;;;;;;;28.00;10.80;;;;;;;5.70;100.00;100552.84;5032480;28;20330;-84
2021/11/19 11:32:31;;;;;;;25.88;13.32;;;;;;;5.66;100.00;100541.44;5034076;28;20456;-83
2021/11/19 11:35:21;;;;;;;29.08;11.07;;;;;;;5.73;100.00;100549.91;5033529;28;20408;-84
2021/11/19 11:38:15;;;;;;;25.20;10.95;;;;;;;5.76;100.00;100546.97;5033037;28;20199;-83
2021/11/19 11:41:02;;;;;;;24.25;11.10;;;;;;;5.70;100.00;100531.28;5032087;28;20322;-83
2021/11/19 11:43:31;;;;;;;25.42;11.70;;;;;;;5.80;100.00;100543.06;5033511;28;20562;-83
2021/11/19 11:46:01;;;;;;;31.40;13.40;;;;;;;5.81;100.00;100544.78;5033202;28;20407;-84
2021/11/19 11:48:41;;;;;;;26.58;10.77;;;;;;;5.81;100.00;100542.94;5033309;28;20056;-83
2021/11/19 11:51:12;;;;;;;28.05;12.00;;;;;;;5.87;100.00;100535.34;5033490;28;20143;-83
2021/11/19 11:53:52;;;;;;;24.17;10.38;;;;;;;5.78;100.00;100515.31;5013678;28;20104;-84
2021/11/19 11:56:28;;;;;;;33.53;11.30;;;;;;;5.92;100.00;100522.34;5013607;28;20541;-83
2021/11/19 11:59:01;;;;;;;25.63;10.82;;;;;;;5.96;100.00;100519.28;5032767;28;20049;-84
2021/11/19 12:01:39;;;;;;;24.10;10.93;;;;;;;5.96;100.00;100524.69;5033799;28;20423;-82
2021/11/19 12:04:13;;;;;;;17.83;10.80;;;;;;;5.88;100.00;100535.22;5013469;28;20093;-82
2021/11/19 12:06:47;;;;;;;26.55;10.13;;;;;;;5.90;100.00;100529.69;5013078;28;20493;-82
2021/11/19 12:09:23;;;;;;;24.23;10.40;;;;;;;5.95;100.00;100535.59;5027490;28;20053;-82
2021/11/19 12:12:28;;;;;;;20.25;10.38;;;;;;;6.07;100.00;100528.38;5031688;28;20049;-81
2021/11/19 12:15:02;;;;;;;22.40;10.68;;;;;;;6.08;100.00;100522.00;5028190;28;20053;-82
2021/11/19 12:17:34;;;;;;;23.23;10.02;;;;;;;6.02;100.00;100521.53;5032648;28;20045;-82
2021/11/19 12:20:16;;;;;;;25.30;10.93;;;;;;;6.05;100.00;100522.25;5032285;28;20497;-82
2021/11/19 12:22:48;;;;;;;21.67;10.18;;;;;;;6.02;100.00;100518.84;5033016;28;20057;-82
2021/11/19 12:26:06;;;;;;;19.17;10.70;;;;;;;6.18;100.00;100517.59;5013118;28;20045;-82
2021/11/19 12:28:46;;;;;;;25.58;9.55;;;;;;;6.12;100.00;100510.00;5014584;28;20053;-82
2021/11/19 12:31:25;;;;;;;21.02;9.98;;;;;;;6.09;100.00;100507.53;5032525;28;20136;-82
2021/11/19 12:33:58;;;;;;;18.33;9.77;;;;;;;6.22;100.00;100507.38;5032539;28;20401;-82
2021/11/19 12:36:30;;;;;;;24.48;10.73;;;;;;;6.16;100.00;100501.50;5032714;28;20068;-82
2021/11/19 12:39:01;;;;;;;22.13;10.18;;;;;;;6.13;100.00;100507.16;5031684;28;20069;-82
2021/11/19 12:41:43;;;;;;;26.67;11.52;;;;;;;6.19;100.00;100495.88;5030713;28;20168;-82
2021/11/19 12:44:34;;;;;;;22.55;9.23;;;;;;;6.23;100.00;100498.31;5032687;28;20072;-82
2021/11/19 12:47:30;;;;;;;22.70;9.63;;;;;;;6.38;100.00;100495.25;5012686;28;20046;-84
2021/11/19 12:50:22;;;;;;;23.67;9.70;;;;;;;6.47;100.00;100498.16;5011920;28;20054;-84
2021/11/19 12:53:02;;;;;;;24.63;10.15;;;;;;;6.31;100.00;100491.31;5012653;28;20053;-82
2021/11/19 12:55:40;;;;;;;19.65;9.52;;;;;;;6.28;100.00;100502.38;5012562;28;20485;-82
2021/11/19 12:58:25;;;;;;;19.65;8.50;;;;;;;6.17;100.00;100502.38;5029246;28;20100;-82
2021/11/19 13:00:58;;;;;;;25.80;8.57;;;;;;;6.25;100.00;100502.63;5032133;28;20073;-82
2021/11/19 13:03:54;;;;;;;26.50;9.02;;;;;;;6.30;100.00;100489.59;5032173;28;20052;-82
2021/11/19 13:06:36;;;;;;;15.45;8.88;;;;;;;6.26;100.00;100490.81;5031819;28;20056;-82
2021/11/19 13:09:41;;;;;;;19.50;8.45;;;;;;;6.37;100.00;100481.88;5031795;28;20509;-84
2021/11/19 13:12:16;;;;;;;17.20;8.38;;;;;;;6.25;100.00;100478.31;5032137;28;20249;-82
2021/11/19 13:14:48;;;;;;;22.90;9.32;;;;;;;6.21;100.00;100466.03;5032181;28;20096;-82
2021/11/19 13:17:58;;;;;;;20.48;8.05;;;;;;;6.28;100.00;100472.66;5030762;28;20066;-82
2021/11/19 13:20:52;;;;;;;19.77;9.93;;;;;;;6.26;100.00;100462.97;5031493;28;20072;-82
2021/11/19 13:23:48;;;;;;;22.63;9.38;;;;;;;6.16;100.00;100457.47;5023341;28;20045;-82
2021/11/19 13:26:42;;;;;;;18.70;9.35;;;;;;;6.24;100.00;100457.69;5031017;28;20053;-85
2021/11/19 13:29:28;;;;;;;20.70;10.05;;;;;;;6.22;100.00;100458.78;5017287;28;20057;-83
2021/11/19 13:32:17;;;;;;;24.50;10.18;;;;;;;6.13;100.00;100455.88;5020678;28;20041;-83
2021/11/19 13:34:55;;;;;;;20.60;9.70;;;;;;;5.99;100.00;100448.88;5026126;28;20049;-83
2021/11/19 13:37:33;;;;;;;23.90;11.05;;;;;;;5.98;100.00;100457.13;5033536;28;20045;-82
2021/11/19 13:40:44;;;;;;;23.42;9.80;;;;;;;6.18;100.00;100455.50;5025451;28;20497;-83
2021/11/19 13:43:36;;;;;;;20.88;9.52;;;;;;;6.13;100.00;100457.72;4988702;28;20042;-83
2021/11/19 13:46:06;;;;;;;23.63;10.88;;;;;;;6.14;100.00;100451.31;5025084;28;20057;-83
2021/11/19 13:48:53;;;;;;;24.40;11.07;;;;;;;6.12;100.00;100437.94;5023057;28;20127;-83
2021/11/19 13:51:49;;;;;;;21.77;9.93;;;;;;;6.25;100.00;100450.44;5027396;28;20042;-83
2021/11/19 13:54:28;;;;;;;22.95;10.48;;;;;;;6.41;100.00;100453.59;5025444;28;20088;-83
2021/11/19 13:57:06;;;;;;;28.73;10.40;;;;;;;6.28;100.00;100445.66;5031665;28;20144;-83
2021/11/19 13:59:45;;;;;;;24.58;10.07;;;;;;;6.21;100.00;100447.13;5027216;28;20052;-84
2021/11/19 14:02:23;;;;;;;30.63;11.43;;;;;;;6.16;100.00;100446.66;5034665;28;20049;-83
2021/11/19 14:04:59;;;;;;;22.77;9.73;;;;;;;6.11;100.00;100451.56;5032986;28;20697;-83
2021/11/19 14:07:28;;;;;;;20.63;10.23;;;;;;;6.19;100.00;100449.97;5034556;28;20050;-82
2021/11/19 14:10:16;;;;;;;26.77;10.70;;;;;;;6.12;100.00;100453.28;5032841;28;20088;-83
2021/11/19 14:12:51;;;;;;;25.80;10.27;;;;;;;6.15;100.00;100455.75;5019665;28;20038;-83
2021/11/19 14:15:25;;;;;;;19.70;9.32;;;;;;;6.05;100.00;100452.91;5026116;28;20057;-83
2021/11/19 14:17:57;;;;;;;26.77;11.50;;;;;;;5.98;100.00;100444.47;5031311;28;20050;-83
2021/11/19 14:23:22;;;;;;;24.33;10.70;;;;;;;6.08;100.00;100436.50;5028605;28;20060;-83
2021/11/19 14:25:51;;;;;;;20.70;9.90;;;;;;;6.01;100.00;100451.47;5031319;28;20045;-83
2021/11/19 14:28:26;;;;;;;22.00;10.47;;;;;;;5.91;100.00;100445.91;5030573;28;20389;-83
2021/11/19 14:30:58;;;;;;;19.35;10.10;;;;;;;5.90;100.00;100448.72;5034829;28;20288;-83
2021/11/19 14:33:34;;;;;;;21.63;10.15;;;;;;;5.88;100.00;100448.00;5030010;28;20111;-83
2021/11/19 14:36:22;;;;;;;20.75;10.20;;;;;;;5.80;100.00;100435.97;5032199;28;20053;-86
2021/11/19 14:38:51;;;;;;;21.92;11.20;;;;;;;5.86;100.00;100437.31;5015943;28;20049;-83
2021/11/19 14:41:40;;;;;;;29.05;9.60;;;;;;;5.99;100.00;100442.59;5032712;28;20050;-83
2021/11/19 14:44:17;;;;;;;24.70;10.73;;;;;;;5.92;100.00;100438.69;5031016;28;20123;-83
2021/11/19 14:47:00;;;;;;;23.83;10.93;;;;;;;5.95;100.00;100447.38;5021156;28;20050;-82
2021/11/19 14:49:32;;;;;;;26.42;10.90;;;;;;;5.93;100.00;100441.25;5032734;28;20041;-83
2021/11/19 14:52:23;;;;;;;25.30;10.65;;;;;;;5.99;100.00;100448.00;5034476;28;20412;-83
2021/11/19 14:54:55;;;;;;;26.90;11.32;;;;;;;5.88;100.00;100416.47;5035364;28;20053;-83
2021/11/19 14:57:38;;;;;;;26.63;11.07;;;;;;;5.92;100.00;100422.47;5025062;28;20096;-83
2021/11/19 15:00:10;;;;;;;23.83;11.77;;;;;;;5.85;100.00;100430.19;5023331;28;20084;-83
2021/11/19 15:02:41;;;;;;;23.00;11.32;;;;;;;5.94;100.00;100439.41;5029856;28;20104;-82
2021/11/19 15:05:13;;;;;;;22.42;11.43;;;;;;;5.89;100.00;100445.19;5034355;28;20050;-83
2021/11/19 15:07:46;;;;;;;22.55;10.68;;;;;;;5.89;100.00;100438.94;5031860;28;20061;-83
2021/11/19 15:10:31;;;;;;;29.35;11.82;;;;;;;5.80;100.00;100432.44;5035234;28;20452;-83
2021/11/19 15:13:20;;;;;;;18.30;10.68;;;;;;;5.73;100.00;100432.03;5034316;28;20504;-83
2021/11/19 15:15:55;;;;;;;27.67;11.07;;;;;;;5.73;100.00;100432.03;5020715;28;20054;-83
2021/11/19 15:18:27;;;;;;;24.75;11.10;;;;;;;5.66;100.00;100438.91;5023851;28;20042;-83
2021/11/19 15:21:12;;;;;;;21.73;11.23;;;;;;;5.66;100.00;100438.91;5022090;28;20133;-83
2021/11/19 15:23:43;;;;;;;21.50;10.13;;;;;;;5.62;100.00;100430.22;5026896;28;20054;-83
2021/11/19 15:26:32;;;;;;;23.75;10.75;;;;;;;5.60;100.00;100429.47;5024884;28;20539;-83
2021/11/19 15:29:24;;;;;;;27.65;12.13;;;;;;;5.62;100.00;100430.22;5030088;28;20045;-83
2021/11/19 15:32:07;;;;;;;26.33;11.57;;;;;;;5.63;100.00;100423.84;5033769;28;20045;-83
2021/11/19 15:34:50;;;;;;;23.83;11.77;;;;;;;5.70;100.00;100436.84;5032699;28;20568;-83
2021/11/19 15:37:25;;;;;;;25.02;11.05;;;;;;;5.60;100.00;100418.69;5026008;28;20136;-83
2021/11/19 15:39:56;;;;;;;22.90;11.65;;;;;;;5.74;100.00;100444.56;5030994;28;20057;-83
2021/11/19 15:42:25;;;;;;;27.33;11.63;;;;;;;5.66;100.00;100429.00;5033292;28;20046;-82
2021/11/19 15:44:55;;;;;;;27.58;12.80;;;;;;;5.78;100.00;100434.38;5028924;28;20053;-84
2021/11/19 15:47:22;;;;;;;;;;;;;;;5.75;100.00;100442.72;5035086;28;20057;-83
2021/11/19 15:49:56;;;;;;;19.98;6.93;;;;;;;5.77;100.00;100433.53;5033566;28;19975;-83
2021/11/19 15:52:29;;;;;;;13.77;6.97;;;;;;;5.77;100.00;100446.16;5030952;28;20045;-83
2021/11/19 15:55:08;;;;;;;13.63;7.07;;;;;;;5.78;100.00;100439.75;5020501;28;20052;-83
2021/11/19 15:57:53;;;;;;;14.23;7.78;;;;;;;5.72;100.00;100419.56;5030162;28;20049;-82
2021/11/19 16:00:30;;;;;;;11.35;7.07;;;;;;;5.73;100.00;100437.44;5030382;28;20890;-82
2021/11/19 16:03:38;;;;;;;17.55;7.55;;;;;;;5.76;100.00;100428.25;5028129;28;20045;-84
2021/11/19 16:06:18;;;;;;;13.52;7.47;;;;;;;5.68;100.00;100443.19;5030803;28;20051;-83
2021/11/19 16:08:52;;;;;;;15.15;7.32;;;;;;;5.74;100.00;100433.78;5032931;28;20046;-84
2021/11/19 16:11:49;;;;;;;17.27;8.45;;;;;;;5.72;100.00;100422.25;5029088;28;20041;-84
2021/11/19 16:14:44;;;;;;;18.33;8.15;;;;;;;5.75;100.00;100443.59;5023040;28;20429;-84
2021/11/19 16:17:18;;;;;;;16.85;8.85;;;;;;;5.75;100.00;100443.59;5029573;28;20440;-84
2021/11/19 16:19:49;;;;;;;18.55;9.77;;;;;;;5.63;100.00;100428.34;5026451;28;20057;-84
2021/11/19 16:22:16;;;;;;;18.02;9.45;;;;;;;5.66;100.00;100431.69;5031311;28;20063;-84
2021/11/19 16:24:44;;;;;;;20.08;10.05;;;;;;;5.67;100.00;100429.84;5027297;28;20049;-81
2021/11/19 16:27:23;;;;;;;19.00;10.10;;;;;;;5.81;100.00;100435.00;5029314;28;20049;-81
2021/11/19 16:29:53;;;;;;;15.15;9.50;;;;;;;5.72;100.00;100426.75;5027672;28;20052;-81
2021/11/19 16:32:20;;;;;;;19.80;9.73;;;;;;;5.74;100.00;100441.00;5030049;28;20405;-80
2021/11/19 16:34:47;;;;;;;20.85;10.52;;;;;;;5.77;100.00;100443.47;5030579;28;20060;-80
2021/11/19 16:37:16;;;;;;;22.75;11.18;;;;;;;5.77;100.00;100447.00;5028505;28;20045;-80
2021/11/19 16:39:43;;;;;;;27.73;13.20;;;;;;;5.68;100.00;100437.81;5025641;28;20448;-80
2021/11/19 16:42:13;;;;;;;20.42;10.95;;;;;;;5.82;100.00;100443.94;5032524;28;20840;-80
2021/11/19 16:44:42;;;;;;;25.63;13.05;;;;;;;5.81;100.00;100445.78;5033999;28;20061;-80
2021/11/19 16:47:10;;;;;;;23.70;12.20;;;;;;;5.80;100.00;100444.06;5032430;28;20054;-80
2021/11/19 16:49:40;;;;;;;22.10;12.23;;;;;;;5.79;100.00;100447.75;5029083;28;20054;-79
2021/11/19 16:52:09;;;;;;;22.70;12.63;;;;;;;5.85;100.00;100452.63;5028517;28;20081;-80
2021/11/19 16:54:37;;;;;;;21.80;12.68;;;;;;;5.79;100.00;100450.44;5031375;28;20049;-81
2021/11/19 16:57:07;;;;;;;25.05;13.80;;;;;;;5.82;100.00;100452.03;5028305;28;20096;-80
2021/11/19 16:59:36;;;;;;;20.55;11.65;;;;;;;5.73;100.00;100441.97;5031444;28;20087;-80
2021/11/19 17:02:04;;;;;;;21.33;11.65;;;;;;;5.77;100.00;100454.25;5030092;28;20135;-81
2021/11/19 17:04:31;;;;;;;17.77;10.82;;;;;;;5.73;100.00;100448.22;5029389;28;20104;-80
2021/11/19 17:06:58;;;;;;;21.95;11.23;;;;;;;5.78;100.00;100455.97;5028196;28;20054;-80
2021/11/19 17:09:29;;;;;;;22.90;11.88;;;;;;;5.73;100.00;100459.03;5031398;28;20546;-81
2021/11/19 17:11:58;;;;;;;21.90;11.20;;;;;;;5.68;100.00;100451.28;5032731;28;20053;-80
2021/11/19 17:14:26;;;;;;;19.55;12.35;;;;;;;5.71;100.00;100452.06;5030027;28;20053;-80
2021/11/19 17:16:57;;;;;;;23.20;12.63;;;;;;;5.74;100.00;100454.50;5031858;28;20045;-81
2021/11/19 17:19:27;;;;;;;27.60;13.02;;;;;;;5.68;100.00;100456.69;5031247;28;20055;-81
2021/11/19 17:21:54;;;;;;;23.58;11.32;;;;;;;5.70;100.00;100463.81;5027155;28;20049;-81
2021/11/19 17:24:22;;;;;;;21.55;12.48;;;;;;;5.73;100.00;100467.13;5032366;28;20057;-80
2021/11/19 17:26:52;;;;;;;21.35;11.88;;;;;;;5.69;100.00;100468.38;5033019;28;20049;-80
2021/11/19 17:29:24;;;;;;;27.10;11.93;;;;;;;5.72;100.00;100464.53;5035463;28;20045;-80
2021/11/19 17:31:52;;;;;;;26.48;12.35;;;;;;;5.68;100.00;100474.72;5035503;28;20045;-80
2021/11/19 17:34:20;;;;;;;24.35;12.80;;;;;;;5.64;100.00;100473.25;5035463;28;20103;-80
2021/11/19 17:36:52;;;;;;;27.42;13.10;;;;;;;5.69;100.00;100479.16;5034336;28;20111;-80
2021/11/19 17:39:25;;;;;;;35.28;14.00;;;;;;;5.78;100.00;100480.25;5035121;28;20054;-80
2021/11/19 17:41:52;;;;;;;24.05;12.50;;;;;;;5.68;100.00;100480.97;5033637;28;20053;-80
2021/11/19 17:44:19;;;;;;;23.55;12.18;;;;;;;5.81;100.00;100472.78;5035953;28;20057;-80
2021/11/19 17:46:50;;;;;;;24.80;13.95;;;;;;;5.77;100.00;100479.41;5034769;28;20410;-80
2021/11/19 17:49:21;;;;;;;23.15;13.93;;;;;;;5.74;100.00;100486.88;5035339;28;20045;-80
2021/11/19 17:51:50;;;;;;;24.30;11.82;;;;;;;5.60;100.00;100475.34;5035098;28;20095;-80
2021/11/19 17:54:19;;;;;;;25.02;12.02;;;;;;;5.67;100.00;100483.78;5036103;28;20049;-80
2021/11/19 17:56:50;;;;;;;28.27;15.25;;;;;;;5.65;100.00;100480.38;5033738;28;20069;-80
2021/11/19 17:59:19;;;;;;;27.65;14.65;;;;;;;5.60;100.00;100479.84;5034561;28;20132;-80
2021/11/19 18:01:51;;;;;;;33.88;15.50;;;;;;;5.62;100.00;100475.22;5035126;28;20049;-80
2021/11/19 18:04:20;;;;;;;27.45;14.43;;;;;;;5.66;100.00;100477.56;5034812;28;20052;-80
2021/11/19 18:06:52;;;;;;;25.10;14.02;;;;;;;5.68;100.00;100482.81;5034945;28;20493;-82
2021/11/19 18:09:22;;;;;;;30.25;14.52;;;;;;;5.62;100.00;100475.22;5034133;28;20088;-79
2021/11/19 18:11:56;;;;;;;33.08;14.30;;;;;;;5.53;100.00;100473.25;5035361;28;20084;-79
2021/11/19 18:14:25;;;;;;;31.58;14.85;;;;;;;5.54;100.00;100469.56;5033084;28;20081;-79
2021/11/19 18:16:54;;;;;;;28.85;15.65;;;;;;;5.62;100.00;100480.63;5034839;28;20497;-80
2021/11/19 18:19:23;;;;;;;31.15;15.38;;;;;;;5.66;100.00;100482.94;5033963;28;20042;-80
2021/11/19 18:21:52;;;;;;;33.55;17.05;;;;;;;5.68;100.00;100485.53;5034647;28;20107;-80
2021/11/19 18:24:22;;;;;;;28.98;15.50;;;;;;;5.65;100.00;100488.47;5034568;28;20045;-80
2021/11/19 18:26:50;;;;;;;33.13;15.25;;;;;;;5.56;100.00;100473.84;5034681;28;20053;-80
2021/11/19 18:29:17;;;;;;;34.40;16.55;;;;;;;5.57;100.00;100477.41;5034002;28;20046;-80
2021/11/19 18:31:47;;;;;;;44.13;20.30;;;;;;;5.63;100.00;100480.50;5032595;28;20049;-80
2021/11/19 18:34:15;;;;;;;34.75;17.15;;;;;;;5.58;100.00;100479.97;5034432;28;20061;-80
2021/11/19 18:36:50;;;;;;;27.05;15.82;;;;;;;5.50;100.00;100464.41;5034266;28;20103;-80
2021/11/19 18:39:20;;;;;;;33.83;14.95;;;;;;;5.56;100.00;100479.25;5033336;28;20072;-81
2021/11/19 18:41:54;;;;;;;26.58;15.45;;;;;;;5.52;100.00;100477.75;5020867;28;20060;-83
2021/11/19 18:44:23;;;;;;;33.35;15.57;;;;;;;5.52;100.00;100474.22;5029289;28;20404;-81
2021/11/19 18:46:54;;;;;;;36.28;17.33;;;;;;;5.51;100.00;100470.69;5034489;28;20041;-83
2021/11/19 18:49:22;;;;;;;37.45;17.83;;;;;;;5.41;100.00;100466.97;5033592;28;20041;-83
2021/11/19 18:51:53;;;;;;;37.35;17.40;;;;;;;5.39;100.00;100472.50;5035393;28;20053;-81
2021/11/19 18:54:21;;;;;;;74.90;34.78;;;;;;;5.44;100.00;100470.28;5034105;28;20088;-81
2021/11/19 18:56:49;;;;;;;35.58;18.42;;;;;;;5.44;100.00;100475.66;5031761;28;20050;-81
2021/11/19 18:59:18;;;;;;;39.50;18.33;;;;;;;5.49;100.00;100483.41;5031037;28;20080;-81
2021/11/19 19:01:47;;;;;;;36.08;18.73;;;;;;;5.47;100.00;100478.13;5033395;28;20493;-81
2021/11/19 19:04:15;;;;;;;33.70;16.00;;;;;;;5.42;100.00;100471.38;5035128;28;20102;-81
2021/11/19 19:06:42;;;;;;;32.28;15.55;;;;;;;5.44;100.00;100477.53;5035343;28;20049;-80
2021/11/19 19:09:13;;;;;;;34.30;17.85;;;;;;;5.34;100.00;100465.72;5034443;28;20045;-81
2021/11/19 19:11:44;;;;;;;42.63;15.98;;;;;;;5.43;100.00;100473.94;5034657;28;20049;-81
2021/11/19 19:14:17;;;;;;;33.15;16.40;;;;;;;5.34;100.00;100463.88;5030401;28;20452;-81
2021/11/19 19:16:47;;;;;;;31.33;15.73;;;;;;;5.32;100.00;100463.16;5028261;28;20091;-81
2021/11/19 19:19:14;;;;;;;31.33;16.63;;;;;;;5.32;100.00;100450.50;5032932;28;20046;-81
2021/11/19 19:21:42;;;;;;;32.00;15.45;;;;;;;5.37;100.00;100443.91;5026396;28;20575;-81
2021/11/19 19:24:11;;;;;;;37.72;14.85;;;;;;;5.49;100.00;100459.13;5020257;28;20057;-81
2021/11/19 19:26:39;;;;;;;30.58;15.05;;;;;;;5.39;100.00;100441.94;5015118;28;20382;-81
2021/11/19 19:29:08;;;;;;;32.40;15.25;;;;;;;5.40;100.00;100446.38;5031251;28;20056;-81
2021/11/19 19:31:44;;;;;;;41.55;15.30;;;;;;;5.46;100.00;100443.19;5033981;28;20053;-81
2021/11/19 19:34:16;;;;;;;30.58;15.63;;;;;;;5.52;100.00;100456.19;5031572;28;20054;-81
2021/11/19 19:36:46;;;;;;;33.33;16.15;;;;;;;5.50;100.00;100459.00;5033222;28;20053;-81
2021/11/19 19:39:18;;;;;;;37.03;16.17;;;;;;;5.45;100.00;100457.63;5033935;28;20390;-81
2021/11/19 19:41:49;;;;;;;33.50;16.13;;;;;;;5.54;100.00;100464.16;5032754;28;20444;-81
2021/11/19 19:44:17;;;;;;;38.25;18.13;;;;;;;5.50;100.00;100461.69;5030281;28;20134;-81
2021/11/19 19:46:46;;;;;;;33.80;18.35;;;;;;;5.52;100.00;100469.69;5030230;28;20049;-81
2021/11/19 19:49:14;;;;;;;37.47;18.13;;;;;;;5.48;100.00;100452.88;5022678;28;20048;-81
2021/11/19 19:51:47;;;;;;;45.13;19.83;;;;;;;5.56;100.00;100465.75;5031849;28;20049;-81
2021/11/19 19:54:18;;;;;;;43.63;18.95;;;;;;;5.56;100.00;100470.31;5031724;28;20098;-81
2021/11/19 19:56:49;;;;;;;43.53;19.67;;;;;;;5.55;100.00;100468.59;5032680;28;20480;-81
2021/11/19 19:59:17;;;;;;;38.25;18.50;;;;;;;5.56;100.00;100476.56;5031839;28;20052;-81
2021/11/19 20:01:46;;;;;;;39.97;18.88;;;;;;;5.52;100.00;100472.38;5030549;28;20057;-81
2021/11/19 20:04:14;;;;;;;35.78;18.58;;;;;;;5.62;100.00;100473.38;5031838;28;20061;-80
2021/11/19 20:06:46;;;;;;;39.85;18.50;;;;;;;5.53;100.00;100471.41;5031560;28;20244;-81
2021/11/19 20:09:15;;;;;;;39.35;18.20;;;;;;;5.59;100.00;100473.63;5032426;28;20049;-81
2021/11/19 20:11:41;;;;;;;34.95;17.95;;;;;;;5.55;100.00;100471.28;5031540;28;20108;-81
2021/11/19 20:14:08;;;;;;;42.05;19.35;;;;;;;5.58;100.00;100471.03;5032115;28;20054;-81
2021/11/19 20:16:38;;;;;;;38.50;17.38;;;;;;;5.58;100.00;100471.88;5032054;28;20455;-80
2021/11/19 20:19:06;;;;;;;33.60;15.82;;;;;;;5.60;100.00;100480.75;5030593;28;20412;-81
2021/11/19 20:21:35;;;;;;;31.98;15.00;;;;;;;5.54;100.00;100477.66;5026345;28;20049;-80
2021/11/19 20:24:02;;;;;;;32.47;15.32;;;;;;;5.56;100.00;100475.72;5031271;28;20140;-80
2021/11/19 20:26:33;;;;;;;35.42;16.15;;;;;;;5.50;100.00;100467.09;5031718;28;20056;-80
2021/11/19 20:29:02;;;;;;;32.58;15.73;;;;;;;5.65;100.00;100486.63;5026888;28;20092;-80
2021/11/19 20:31:31;;;;;;;34.00;15.60;;;;;;;5.73;100.00;100488.72;5031900;28;20404;-80
2021/11/19 20:34:00;;;;;;;36.35;16.45;;;;;;;5.68;100.00;100483.69;5030636;28;20492;-80
2021/11/19 20:36:28;;;;;;;30.65;16.48;;;;;;;5.70;100.00;100477.31;5030848;28;20069;-80
2021/11/19 20:38:59;;;;;;;31.83;14.55;;;;;;;5.69;100.00;100484.56;5025308;28;20057;-80
2021/11/19 20:41:28;;;;;;;34.35;16.48;;;;;;;5.65;100.00;100483.91;5031798;28;20076;-80
2021/11/19 20:43:57;;;;;;;36.83;18.15;;;;;;;5.60;100.00;100472.66;5032110;28;20103;-80
2021/11/19 20:46:26;;;;;;;35.17;17.40;;;;;;;5.66;100.00;100482.06;5030854;28;20516;-80
2021/11/19 20:48:54;;;;;;;37.10;17.30;;;;;;;5.63;100.00;100482.31;5021522;28;20267;-80
2021/11/19 20:51:26;;;;;;;30.77;15.88;;;;;;;5.56;100.00;100491.88;5030350;28;20052;-80
2021/11/19 20:53:56;;;;;;;42.30;19.02;;;;;;;5.55;100.00;100477.53;5030272;28;20045;-80
2021/11/19 20:56:29;;;;;;;37.72;17.92;;;;;;;5.58;100.00;100485.38;5028462;28;20042;-80
2021/11/19 20:59:00;;;;;;;37.08;17.17;;;;;;;5.57;100.00;100480.97;5031594;28;20140;-80
2021/11/19 21:01:31;;;;;;;34.42;17.73;;;;;;;5.64;100.00;100481.34;5031332;28;20567;-80